Yoronjima Yoron Airport

About
Name: Yoronjima Yoron Airport
Identifier:  RNJ/RORY
Public/Private:  Public
Local Time:  21. Sep 18:40 JST
Description: Yoron Airport is a third-class airport located on Yoronjima in Kagoshima Prefecture Japan.
Source: Wikipedia
Location
Yoronjima
  Japan

Runways
Identifier Length (m/ft) Surface
14/32 1,200/3,937 Asphalt concrete
Statistics
Flights per Day:
3 flights
Distance: 371km (230mi)
Flights delayed:
68% (1 flights per day delayed)
Delay Average: 11 minutes
Current Weather
 25 C (Humidity: 94%)
  30kt (55km/h / 34mph) from 180°
44 knots Gusts

  5km (3 mi.)
 METAR RORY 210900Z AUTO 18030G44KT 5000 BR SCT013 BKN019 BKN050 //////TCU 25/24 Q0997

Current Flights

Arrivals
Number Arrival From Airline
Cancelled JC3823 12:50  Kagoshima  JAL Express
Cancelled JC3861 12:05  Amami  JAL Express

Current Delays

Departures
N/A
Arrivals
N/A

Destinations

Top Destinations
Airport Flights
per week
Seats
per week
  Kagoshima (KOJ) 14 - 2 0
  Amami (ASJ) 13 268 1 38

Airlines & Planes

Top Airlines
Airline Flights
per Day
Seats
per Day
  Japan Air Commuter 3 38
Top Plane Types
Model Flights Seats
ATR 76-600 2.0/day - 0
ATR 42-600 1.8/day 33/day 33.6
Saab 340 0.1/day 4/day 4.8